sensor_id;sensor_type;location;lat;lon;timestamp;pressure;altitude;pressure_sealevel;temperature;humidity
45939;BME280;31650;48.818;9.116;2023-02-14T00:03:56;99807.81;;;-2.12;100.00
45939;BME280;31650;48.818;9.116;2023-02-14T00:18:59;99811.41;;;-2.42;100.00
45939;BME280;31650;48.818;9.116;2023-02-14T00:34:03;99808.19;;;-2.47;100.00
45939;BME280;31650;48.818;9.116;2023-02-14T00:49:03;99809.13;;;-2.34;100.00
45939;BME280;31650;48.818;9.116;2023-02-14T01:04:04;99809.44;;;-2.24;100.00
45939;BME280;31650;48.818;9.116;2023-02-14T01:19:04;99812.03;;;-2.08;100.00
45939;BME280;31650;48.818;9.116;2023-02-14T01:34:04;99808.22;;;-2.19;100.00
45939;BME280;31650;48.818;9.116;2023-02-14T02:04:09;99801.72;;;-2.29;100.00
45939;BME280;31650;48.818;9.116;2023-02-14T03:04:53;99790.56;;;-3.25;100.00
45939;BME280;31650;48.818;9.116;2023-02-14T03:20:38;99806.66;;;-3.12;100.00
45939;BME280;31650;48.818;9.116;2023-02-14T03:50:27;99795.72;;;-2.47;100.00
45939;BME280;31650;48.818;9.116;2023-02-14T04:05:29;99785.09;;;-2.77;100.00
45939;BME280;31650;48.818;9.116;2023-02-14T07:40:29;99797.63;;;-2.79;100.00
45939;BME280;31650;48.818;9.116;2023-02-14T07:55:29;99799.44;;;-1.92;100.00
45939;BME280;31650;48.818;9.116;2023-02-14T08:10:30;99778.59;;;-1.44;100.00
45939;BME280;31650;48.818;9.116;2023-02-14T08:25:30;99773.91;;;-0.73;100.00
45939;BME280;31650;48.818;9.116;2023-02-14T08:40:30;99766.56;;;1.16;100.00
45939;BME280;31650;48.818;9.116;2023-02-14T08:55:30;99760.09;;;2.33;100.00
45939;BME280;31650;48.818;9.116;2023-02-14T09:10:31;99743.97;;;2.99;100.00
45939;BME280;31650;48.818;9.116;2023-02-14T09:25:31;99720.50;;;3.64;100.00
45939;BME280;31650;48.818;9.116;2023-02-14T09:40:31;99702.41;;;4.66;100.00
45939;BME280;31650;48.818;9.116;2023-02-14T09:55:34;99683.50;;;6.74;100.00
45939;BME280;31650;48.818;9.116;2023-02-14T10:10:45;99675.94;;;6.96;84.35
45939;BME280;31650;48.818;9.116;2023-02-14T11:26:31;99597.06;;;10.23;64.67
45939;BME280;31650;48.818;9.116;2023-02-14T11:41:49;99573.47;;;10.78;63.13
45939;BME280;31650;48.818;9.116;2023-02-14T11:57:33;99567.19;;;10.15;63.03
45939;BME280;31650;48.818;9.116;2023-02-14T12:12:21;99554.72;;;10.60;62.38
45939;BME280;31650;48.818;9.116;2023-02-14T12:27:23;99538.50;;;10.90;60.06
45939;BME280;31650;48.818;9.116;2023-02-14T13:27:48;99473.03;;;11.36;57.76
45939;BME280;31650;48.818;9.116;2023-02-14T13:42:50;99467.19;;;9.56;62.97
45939;BME280;31650;48.818;9.116;2023-02-14T13:58:00;99464.00;;;9.05;66.87
45939;BME280;31650;48.818;9.116;2023-02-14T14:13:02;99458.78;;;8.29;78.34
45939;BME280;31650;48.818;9.116;2023-02-14T14:28:12;99451.72;;;8.53;77.86
45939;BME280;31650;48.818;9.116;2023-02-14T14:43:38;99444.56;;;7.95;80.26
45939;BME280;31650;48.818;9.116;2023-02-14T14:58:39;99446.69;;;7.16;87.21
45939;BME280;31650;48.818;9.116;2023-02-14T15:13:46;99439.53;;;7.41;86.74
45939;BME280;31650;48.818;9.116;2023-02-14T15:28:56;99444.22;;;7.31;85.40
45939;BME280;31650;48.818;9.116;2023-02-14T15:43:56;99437.09;;;6.61;94.67
45939;BME280;31650;48.818;9.116;2023-02-14T15:59:03;99457.31;;;6.13;100.00
45939;BME280;31650;48.818;9.116;2023-02-14T16:29:24;99458.84;;;4.69;100.00
45939;BME280;31650;48.818;9.116;2023-02-14T16:44:24;99469.03;;;3.39;100.00
45939;BME280;31650;48.818;9.116;2023-02-14T16:59:24;99493.03;;;2.39;100.00
45939;BME280;31650;48.818;9.116;2023-02-14T17:14:26;99499.44;;;2.05;100.00
45939;BME280;31650;48.818;9.116;2023-02-14T17:29:27;99508.41;;;1.28;100.00
45939;BME280;31650;48.818;9.116;2023-02-14T17:44:28;99510.81;;;1.32;100.00
45939;BME280;31650;48.818;9.116;2023-02-14T17:59:31;99514.72;;;1.50;100.00
45939;BME280;31650;48.818;9.116;2023-02-14T18:14:31;99515.25;;;0.99;100.00
45939;BME280;31650;48.818;9.116;2023-02-14T18:29:32;99514.16;;;0.32;100.00
45939;BME280;31650;48.818;9.116;2023-02-14T18:44:32;99494.19;;;-0.10;100.00
45939;BME280;31650;48.818;9.116;2023-02-14T18:59:33;99490.94;;;-0.51;100.00
45939;BME280;31650;48.818;9.116;2023-02-14T19:14:33;99483.00;;;-0.39;100.00
45939;BME280;31650;48.818;9.116;2023-02-14T19:29:33;99477.06;;;-0.56;100.00
45939;BME280;31650;48.818;9.116;2023-02-14T19:44:34;99453.00;;;-0.80;100.00
45939;BME280;31650;48.818;9.116;2023-02-14T19:59:34;99453.09;;;-1.18;100.00
45939;BME280;31650;48.818;9.116;2023-02-14T20:14:35;99444.81;;;-1.26;100.00
45939;BME280;31650;48.818;9.116;2023-02-14T20:29:35;99440.13;;;-1.61;100.00
45939;BME280;31650;48.818;9.116;2023-02-14T20:44:37;99413.03;;;-1.55;100.00
45939;BME280;31650;48.818;9.116;2023-02-14T20:59:38;99406.66;;;-1.65;100.00
45939;BME280;31650;48.818;9.116;2023-02-14T21:14:43;99392.56;;;-1.42;100.00
45939;BME280;31650;48.818;9.116;2023-02-14T21:29:43;99384.03;;;-1.98;100.00
45939;BME280;31650;48.818;9.116;2023-02-14T21:44:44;99377.75;;;-2.10;100.00
45939;BME280;31650;48.818;9.116;2023-02-14T22:00:03;99367.53;;;-2.16;100.00
45939;BME280;31650;48.818;9.116;2023-02-14T22:15:04;99359.19;;;-2.37;100.00
45939;BME280;31650;48.818;9.116;2023-02-14T22:30:05;99347.16;;;-2.17;100.00
45939;BME280;31650;48.818;9.116;2023-02-14T22:45:06;99339.25;;;-1.93;100.00
45939;BME280;31650;48.818;9.116;2023-02-14T23:00:06;99343.75;;;-1.94;100.00
45939;BME280;31650;48.818;9.116;2023-02-14T23:15:10;99331.16;;;-2.17;100.00
45939;BME280;31650;48.818;9.116;2023-02-14T23:30:29;99323.69;;;-2.50;100.00
45939;BME280;31650;48.818;9.116;2023-02-14T23:45:29;99321.22;;;-1.77;100.00
